KOSC/OSC METAR and TAF weather

Enter ICAO airport designator
Station Type Date Time Source
KOSC METAR 2020/09/18 19:35 UTC NOAA

KOSC 181935Z AUTO 06012KT 10SM CLR 13/M01 A3037 RMK AO2 T01251010


Station Type Date Time Source
KOSC Decoded METAR 2020/09/18 19:35 UTC NOAA

Oscoda, Oscoda-Wurtsmith Airport, MI, United States (KOSC) 44-27N 083-22W
Sep 18, 2020 - 03:35 PM EDT / 2020.09.18 1935 UTC
Wind: from the ENE (060 degrees) at 14 MPH (12 KT):0
Visibility: 10 mile(s):0
Sky conditions: clear
Temperature: 54.5 F (12.5 C)
Dew Point: 30.2 F (-1.0 C)
Relative Humidity: 39%
Pressure (altimeter): 30.37 in. Hg (1028 hPa)
ob: KOSC 181935Z AUTO 06012KT 10SM CLR 13/M01 A3037 RMK AO2 T01251010
cycle: 19

Station Type Date Time Source
KOSC TAF UTC NOAA

Error!

Example: see airport list